East Hampstead, New Hampshire
Current Conditions -  °F | °C
As of 8:54 AM on Wednesday 28 Jan 2015 (Local Time) from KLWM Reporting Station
Overcast Overcast  
Wind Chill: -17°   Ceiling: 4400
Heat Index: -10°   Visibility: 10mi
Dew Point: -16°   Wind: 10mph
Humidity: 62%   Direction: 320°NW
Pressure: 29.94"   Gusts: 20mph
Location:  42.89°N, 71.14°W
Report Text: KLWM 281354Z 32009G17KT 290V360 10SM OVC044 M10/M16 A2994 RMK AO2 SLP140 T11001161
Loading
Personal Weather Stations






























Interactive Weather Map New forecast layout! Learn more

10-Day Weather Forecast

Advertisements
Track Severe Weather on mobile